Time;durP1;ratioP1;P1;durP2;ratioP2;P2;SDS_P1;SDS_P2;PMS_P1;PMS_P2;Temp;Humidity;BMP_temperature;BMP_pressure;BME280_temperature;BME280_humidity;BME280_pressure;Samples;Min_cycle;Max_cycle;Signal;HPM_P1;HPM_P2
2023/06/26 00:00:27;;;;;;;;;;;17.40;99.90;;;;;;5118089;27;19923;-84
2023/06/26 00:02:54;;;;;;;;;;;17.40;99.90;;;;;;5117485;27;20006;-84
2023/06/26 00:05:19;;;;;;;;;;;17.30;99.90;;;;;;5119343;27;19922;-84
2023/06/26 00:07:45;;;;;;;;;;;17.30;99.90;;;;;;5102189;27;20304;-84
2023/06/26 00:10:11;;;;;;;;;;;17.30;99.90;;;;;;5119618;27;19961;-84
2023/06/26 00:12:37;;;;;;;;;;;17.20;99.90;;;;;;5102381;27;19919;-84
2023/06/26 00:18:30;;;;;;;;;;;17.20;99.90;;;;;;5133660;27;20061;-84
2023/06/26 00:20:56;;;;;;;;;;;17.10;99.90;;;;;;5137634;27;20034;-84
2023/06/26 00:23:22;;;;;;;;;;;17.10;99.90;;;;;;5102114;27;20535;-84
2023/06/26 00:25:47;;;;;;;;;;;17.10;99.90;;;;;;5099029;27;19927;-84
2023/06/26 00:28:13;;;;;;;;;;;17.10;99.90;;;;;;5097846;28;19989;-84
2023/06/26 00:30:38;;;;;;;;;;;17.10;99.90;;;;;;5109606;27;20362;-85
2023/06/26 00:33:04;;;;;;;;;;;17.00;99.90;;;;;;5101906;27;19996;-85
2023/06/26 00:35:30;;;;;;;;;;;17.10;99.90;;;;;;5118766;27;19916;-85
2023/06/26 00:37:56;;;;;;;;;;;17.00;99.90;;;;;;5101827;27;19919;-84
2023/06/26 00:40:22;;;;;;;;;;;17.00;99.90;;;;;;5119409;27;19919;-85
2023/06/26 00:42:47;;;;;;;;;;;17.00;99.90;;;;;;5101270;27;19912;-85
2023/06/26 00:45:13;;;;;;;;;;;16.90;99.90;;;;;;5101507;27;19958;-84
2023/06/26 00:47:39;;;;;;;;;;;16.80;99.90;;;;;;5100597;27;19955;-85
2023/06/26 00:50:05;;;;;;;;;;;16.70;99.90;;;;;;5118867;27;20354;-84
2023/06/26 00:52:31;;;;;;;;;;;16.70;99.90;;;;;;5101143;27;20362;-84
2023/06/26 00:54:59;;;;;;;;;;;16.60;99.90;;;;;;5100286;27;19987;-84
2023/06/26 00:57:24;;;;;;;;;;;16.70;99.90;;;;;;5099901;27;19916;-85
2023/06/26 00:59:50;;;;;;;;;;;16.60;99.90;;;;;;5101106;27;19911;-84
2023/06/26 01:02:19;;;;;;;;;;;16.50;99.90;;;;;;5101212;27;19919;-85
2023/06/26 01:04:52;;;;;;;;;;;16.40;99.90;;;;;;5101458;27;20439;-84
2023/06/26 01:07:18;;;;;;;;;;;16.30;99.90;;;;;;5111743;27;19920;-84
2023/06/26 01:09:53;;;;;;;;;;;16.20;99.90;;;;;;5101522;27;19935;-84
2023/06/26 01:12:18;;;;;;;;;;;16.20;99.90;;;;;;5118456;27;19919;-84
2023/06/26 01:14:47;;;;;;;;;;;16.10;99.90;;;;;;5101064;27;20282;-84
2023/06/26 01:17:15;;;;;;;;;;;16.10;99.90;;;;;;5118738;27;19915;-84
2023/06/26 01:20:12;;;;;;;;;;;16.00;99.90;;;;;;5101710;27;19920;-85
2023/06/26 01:22:56;;;;;;;;;;;16.00;99.90;;;;;;5118088;27;20385;-85
2023/06/26 01:25:27;;;;;;;;;;;16.00;99.90;;;;;;5112222;27;19933;-85
2023/06/26 01:27:54;;;;;;;;;;;15.90;99.90;;;;;;5117871;27;20007;-84
2023/06/26 01:30:20;;;;;;;;;;;15.90;99.90;;;;;;5101160;27;20354;-85
2023/06/26 01:32:46;;;;;;;;;;;15.90;99.90;;;;;;5100723;27;20370;-84
2023/06/26 01:35:12;;;;;;;;;;;15.80;99.90;;;;;;5117760;27;19912;-85
2023/06/26 01:37:37;;;;;;;;;;;15.80;99.90;;;;;;5100634;27;20399;-84
2023/06/26 01:40:05;;;;;;;;;;;15.70;99.90;;;;;;5099857;27;19958;-85
2023/06/26 01:42:57;;;;;;;;;;;15.60;99.90;;;;;;5100164;27;19919;-85
2023/06/26 01:45:28;;;;;;;;;;;15.60;99.90;;;;;;5100803;27;19973;-84
2023/06/26 01:47:55;;;;;;;;;;;15.50;99.90;;;;;;5100169;27;19954;-85
2023/06/26 01:50:22;;;;;;;;;;;15.40;99.90;;;;;;5117607;27;20363;-84
2023/06/26 01:52:53;;;;;;;;;;;15.40;99.90;;;;;;5100145;27;19919;-85
2023/06/26 01:55:35;;;;;;;;;;;15.40;99.90;;;;;;5100064;27;19960;-85
2023/06/26 01:58:01;;;;;;;;;;;15.40;99.90;;;;;;5099449;27;20406;-85
2023/06/26 02:00:36;;;;;;;;;;;15.40;99.90;;;;;;5100002;27;20033;-85
2023/06/26 02:03:03;;;;;;;;;;;15.40;99.90;;;;;;5099133;27;19915;-85
2023/06/26 02:05:30;;;;;;;;;;;15.40;99.90;;;;;;5100052;27;19919;-85
2023/06/26 02:07:58;;;;;;;;;;;15.40;99.90;;;;;;5099831;27;19915;-85
2023/06/26 02:10:23;;;;;;;;;;;15.40;99.90;;;;;;5117660;27;20639;-85
2023/06/26 02:16:23;;;;;;;;;;;15.30;99.90;;;;;;5128256;27;19918;-84
2023/06/26 02:18:49;;;;;;;;;;;15.20;99.90;;;;;;5116650;27;19916;-84
2023/06/26 02:21:14;;;;;;;;;;;15.10;99.90;;;;;;5099762;27;19972;-85
2023/06/26 02:23:45;;;;;;;;;;;15.10;99.90;;;;;;5099726;27;19949;-84
2023/06/26 02:26:14;;;;;;;;;;;15.10;99.90;;;;;;5099698;27;19938;-85
2023/06/26 02:28:41;;;;;;;;;;;15.20;99.90;;;;;;5099691;27;19915;-84
2023/06/26 02:31:07;;;;;;;;;;;15.20;99.90;;;;;;5116344;27;19968;-85
2023/06/26 02:33:32;;;;;;;;;;;15.10;99.90;;;;;;5099788;27;19920;-84
2023/06/26 02:36:26;;;;;;;;;;;15.10;99.90;;;;;;5116085;27;19915;-84
2023/06/26 02:38:52;;;;;;;;;;;15.10;99.90;;;;;;5096369;27;20362;-84
2023/06/26 02:41:18;;;;;;;;;;;15.00;99.90;;;;;;5098743;27;19998;-84
2023/06/26 02:43:44;;;;;;;;;;;15.00;99.90;;;;;;5099579;27;19918;-84
2023/06/26 02:46:10;;;;;;;;;;;14.90;99.90;;;;;;5099147;27;19916;-84
2023/06/26 02:48:35;;;;;;;;;;;15.00;99.90;;;;;;5099318;27;20374;-85
2023/06/26 02:51:01;;;;;;;;;;;15.00;99.90;;;;;;5099043;27;19916;-84
2023/06/26 02:53:31;;;;;;;;;;;15.00;99.90;;;;;;5099952;27;20382;-84
2023/06/26 02:55:56;;;;;;;;;;;14.90;99.90;;;;;;5098742;27;19911;-84
2023/06/26 02:58:22;;;;;;;;;;;14.90;99.90;;;;;;5099080;27;19921;-85
2023/06/26 03:00:48;;;;;;;;;;;14.90;99.90;;;;;;5099545;27;19911;-84
2023/06/26 03:03:16;;;;;;;;;;;14.80;99.90;;;;;;5099649;27;19954;-84
2023/06/26 03:05:42;;;;;;;;;;;14.80;99.90;;;;;;5115621;27;19991;-84
2023/06/26 03:08:08;;;;;;;;;;;14.90;99.90;;;;;;5115858;27;20277;-84
2023/06/26 03:10:33;;;;;;;;;;;14.80;99.90;;;;;;5115679;28;19923;-84
2023/06/26 03:16:28;;;;;;;;;;;14.70;99.90;;;;;;5127998;27;20009;-85
2023/06/26 03:18:53;;;;;;;;;;;14.70;99.90;;;;;;5097998;28;19947;-85
2023/06/26 03:21:44;;;;;;;;;;;14.60;99.90;;;;;;5097831;27;19907;-84
2023/06/26 03:24:10;;;;;;;;;;;14.70;99.90;;;;;;5131706;27;19919;-82
2023/06/26 03:26:36;;;;;;;;;;;14.70;99.90;;;;;;5098120;28;19915;-82
2023/06/26 03:29:02;;;;;;;;;;;14.70;99.90;;;;;;5098010;28;20500;-82
2023/06/26 03:31:27;;;;;;;;;;;14.80;99.90;;;;;;5097619;27;19911;-82
2023/06/26 03:33:53;;;;;;;;;;;14.70;99.90;;;;;;5096935;28;19921;-82
2023/06/26 03:36:19;;;;;;;;;;;14.70;99.90;;;;;;5097691;28;19915;-82
2023/06/26 03:38:44;;;;;;;;;;;14.60;99.90;;;;;;5097546;28;19912;-82
2023/06/26 03:41:11;;;;;;;;;;;14.70;99.90;;;;;;5114681;28;19911;-82
2023/06/26 03:43:37;;;;;;;;;;;14.60;99.90;;;;;;5097475;28;19922;-82
2023/06/26 03:46:19;;;;;;;;;;;14.80;99.90;;;;;;5095318;28;19919;-82
2023/06/26 03:48:46;;;;;;;;;;;14.80;99.90;;;;;;5098106;28;19926;-82
2023/06/26 03:51:11;;;;;;;;;;;14.80;99.90;;;;;;5114776;28;19967;-82
2023/06/26 03:53:37;;;;;;;;;;;14.80;99.90;;;;;;5115843;28;19919;-82
2023/06/26 03:56:04;;;;;;;;;;;14.80;99.90;;;;;;5115028;28;19912;-82
2023/06/26 03:58:30;;;;;;;;;;;14.90;99.90;;;;;;5095633;28;19911;-82
2023/06/26 04:00:55;;;;;;;;;;;14.90;99.90;;;;;;5114917;28;20369;-82
2023/06/26 04:03:21;;;;;;;;;;;15.00;99.90;;;;;;5097817;28;19955;-83
2023/06/26 04:05:48;;;;;;;;;;;15.00;99.90;;;;;;5097728;28;19971;-82
2023/06/26 04:08:14;;;;;;;;;;;15.00;99.90;;;;;;5115441;28;19907;-81
2023/06/26 04:10:39;;;;;;;;;;;15.00;99.90;;;;;;5120710;28;19915;-82
2023/06/26 04:13:05;;;;;;;;;;;15.10;99.90;;;;;;5115089;28;19919;-82
2023/06/26 04:15:30;;;;;;;;;;;15.10;99.90;;;;;;5114643;28;19911;-82
2023/06/26 04:17:56;;;;;;;;;;;15.20;99.90;;;;;;5114691;28;19955;-82
2023/06/26 04:20:22;;;;;;;;;;;15.20;99.90;;;;;;5114516;28;19915;-82
2023/06/26 04:22:47;;;;;;;;;;;15.20;99.90;;;;;;5097606;28;19911;-82
2023/06/26 04:25:13;;;;;;;;;;;15.30;99.90;;;;;;5114168;28;20002;-82
2023/06/26 04:27:38;;;;;;;;;;;15.30;99.90;;;;;;5114545;28;20275;-82
2023/06/26 04:30:05;;;;;;;;;;;15.40;99.90;;;;;;5115456;27;20049;-82
2023/06/26 04:32:30;;;;;;;;;;;15.50;99.90;;;;;;5101408;27;19912;-82
2023/06/26 04:34:56;;;;;;;;;;;15.60;99.90;;;;;;5101479;27;20374;-83
2023/06/26 04:37:22;;;;;;;;;;;15.70;99.90;;;;;;5101632;27;20312;-83
2023/06/26 04:39:47;;;;;;;;;;;15.80;99.90;;;;;;5101057;27;19998;-82
2023/06/26 04:42:13;;;;;;;;;;;16.00;99.90;;;;;;5101156;27;20273;-83
2023/06/26 04:44:40;;;;;;;;;;;16.10;99.90;;;;;;5100570;27;19961;-82
2023/06/26 04:47:06;;;;;;;;;;;16.20;99.90;;;;;;5117394;27;19915;-82
2023/06/26 04:49:32;;;;;;;;;;;16.20;99.90;;;;;;5100391;27;20388;-83
2023/06/26 04:51:59;;;;;;;;;;;16.30;99.90;;;;;;5101205;27;19918;-82
2023/06/26 04:54:25;;;;;;;;;;;16.40;99.90;;;;;;5100210;27;19916;-82
2023/06/26 04:57:08;;;;;;;;;;;16.50;99.90;;;;;;5101285;27;19915;-82
2023/06/26 04:59:55;;;;;;;;;;;16.60;99.90;;;;;;5097342;28;19912;-82
2023/06/26 05:02:20;;;;;;;;;;;16.80;99.90;;;;;;5127969;27;19961;-82
2023/06/26 05:04:47;;;;;;;;;;;16.90;99.90;;;;;;5117331;27;20757;-82
2023/06/26 05:07:24;;;;;;;;;;;17.10;99.90;;;;;;5117547;27;20014;-82
2023/06/26 05:09:50;;;;;;;;;;;17.20;99.90;;;;;;5130659;27;19915;-82
2023/06/26 05:12:37;;;;;;;;;;;17.30;99.90;;;;;;5117569;27;19956;-83
2023/06/26 05:15:03;;;;;;;;;;;17.40;99.90;;;;;;5152336;27;19911;-83
2023/06/26 05:17:29;;;;;;;;;;;17.60;99.90;;;;;;5100220;27;19939;-83
2023/06/26 05:19:54;;;;;;;;;;;17.70;99.90;;;;;;5101087;27;20255;-82
2023/06/26 05:22:20;;;;;;;;;;;17.90;99.90;;;;;;5117818;27;19918;-83
2023/06/26 05:24:46;;;;;;;;;;;18.10;99.90;;;;;;5117528;27;19915;-83
2023/06/26 05:27:19;;;;;;;;;;;18.30;99.90;;;;;;5100221;27;19962;-82
2023/06/26 05:30:03;;;;;;;;;;;18.50;99.90;;;;;;5117528;27;19972;-82
2023/06/26 05:32:30;;;;;;;;;;;18.80;99.90;;;;;;5109426;27;20007;-83
2023/06/26 05:34:57;;;;;;;;;;;19.20;99.90;;;;;;5094573;27;20306;-82
2023/06/26 05:37:24;;;;;;;;;;;19.40;99.90;;;;;;5099925;27;20420;-83
2023/06/26 05:39:51;;;;;;;;;;;19.60;99.90;;;;;;5128306;27;20002;-82
2023/06/26 05:42:17;;;;;;;;;;;19.80;99.90;;;;;;5112616;27;19988;-82
2023/06/26 05:44:43;;;;;;;;;;;19.90;99.90;;;;;;5110822;27;19916;-82
2023/06/26 05:47:09;;;;;;;;;;;20.10;99.90;;;;;;5098065;27;19919;-83
2023/06/26 05:49:35;;;;;;;;;;;20.20;99.90;;;;;;5096621;27;19930;-82
2023/06/26 05:52:01;;;;;;;;;;;20.30;99.90;;;;;;5098055;27;19918;-82
2023/06/26 05:54:27;;;;;;;;;;;20.40;99.90;;;;;;5113694;27;19923;-82
2023/06/26 05:56:55;;;;;;;;;;;20.40;99.90;;;;;;5104964;28;20327;-82
2023/06/26 05:59:22;;;;;;;;;;;20.50;99.90;;;;;;5114457;27;19922;-82
2023/06/26 06:01:47;;;;;;;;;;;20.50;99.90;;;;;;5112904;27;19938;-82
2023/06/26 06:04:13;;;;;;;;;;;20.60;99.90;;;;;;5133609;27;19915;-82
2023/06/26 06:06:39;;;;;;;;;;;20.60;99.90;;;;;;5088794;28;19927;-82
2023/06/26 06:09:05;;;;;;;;;;;20.70;99.90;;;;;;5094602;27;20363;-82
2023/06/26 06:11:30;;;;;;;;;;;20.70;99.90;;;;;;5127906;27;20252;-82
2023/06/26 06:13:56;;;;;;;;;;;20.70;99.90;;;;;;5105045;28;19916;-82
2023/06/26 06:16:21;;;;;;;;;;;20.70;99.90;;;;;;5113444;27;20413;-83
2023/06/26 06:18:47;;;;;;;;;;;20.80;99.90;;;;;;5094892;28;19912;-82
2023/06/26 06:21:13;;;;;;;;;;;20.80;99.90;;;;;;5114196;27;19915;-82
2023/06/26 06:23:38;;;;;;;;;;;20.90;99.90;;;;;;5094814;28;20023;-83
2023/06/26 06:26:04;;;;;;;;;;;20.90;99.90;;;;;;5131127;27;19918;-82
2023/06/26 06:28:29;;;;;;;;;;;21.00;99.90;;;;;;5114586;27;19923;-82
2023/06/26 06:30:55;;;;;;;;;;;21.00;99.90;;;;;;5106302;27;20785;-82
2023/06/26 06:33:20;;;;;;;;;;;21.20;99.90;;;;;;5106081;27;20277;-82
2023/06/26 06:35:46;;;;;;;;;;;21.20;99.90;;;;;;5127557;27;19920;-82
2023/06/26 06:38:12;;;;;;;;;;;21.30;99.90;;;;;;5114640;27;19947;-83
2023/06/26 06:40:37;;;;;;;;;;;21.30;99.90;;;;;;5094201;27;19908;-82
2023/06/26 06:43:03;;;;;;;;;;;21.40;99.90;;;;;;5113040;27;19912;-82
2023/06/26 06:45:29;;;;;;;;;;;21.40;99.90;;;;;;5112894;27;19911;-82
2023/06/26 06:47:54;;;;;;;;;;;21.40;99.90;;;;;;5123033;27;20018;-82
2023/06/26 06:50:20;;;;;;;;;;;21.50;99.90;;;;;;5113499;27;19919;-82
2023/06/26 06:52:46;;;;;;;;;;;21.50;99.90;;;;;;5091121;28;20443;-82
2023/06/26 06:55:11;;;;;;;;;;;21.50;99.90;;;;;;5095323;27;20367;-83
2023/06/26 06:57:40;;;;;;;;;;;21.70;99.90;;;;;;5093529;27;19918;-82
2023/06/26 07:00:08;;;;;;;;;;;21.70;99.90;;;;;;5112961;27;20270;-82
2023/06/26 07:02:35;;;;;;;;;;;21.80;99.90;;;;;;5104982;28;19995;-82
2023/06/26 07:05:01;;;;;;;;;;;21.80;99.90;;;;;;5093529;27;19912;-83
2023/06/26 07:07:28;;;;;;;;;;;21.90;99.90;;;;;;5094955;27;20022;-82
2023/06/26 07:09:54;;;;;;;;;;;22.00;99.90;;;;;;5108977;27;19956;-81
2023/06/26 07:12:20;;;;;;;;;;;22.40;99.90;;;;;;5107692;27;19930;-82
2023/06/26 07:14:45;;;;;;;;;;;23.40;99.90;;;;;;5113800;28;19957;-82
2023/06/26 07:17:11;;;;;;;;;;;24.50;99.90;;;;;;5102268;27;20857;-82
2023/06/26 07:19:36;;;;;;;;;;;25.40;99.90;;;;;;5093706;27;19915;-82
2023/06/26 07:22:02;;;;;;;;;;;26.10;99.90;;;;;;5115347;28;19915;-83
2023/06/26 07:24:28;;;;;;;;;;;26.50;99.90;;;;;;5091944;28;19916;-83
2023/06/26 07:26:53;;;;;;;;;;;27.10;99.90;;;;;;5105556;28;19968;-83
2023/06/26 07:29:19;;;;;;;;;;;27.50;99.90;;;;;;5109634;27;19949;-83
2023/06/26 07:31:45;;;;;;;;;;;27.50;99.40;;;;;;5146091;27;19911;-83
2023/06/26 07:34:10;;;;;;;;;;;27.70;98.70;;;;;;5107966;28;19922;-83
2023/06/26 07:36:36;;;;;;;;;;;28.70;97.60;;;;;;5113964;28;19912;-82
2023/06/26 07:39:02;;;;;;;;;;;29.30;95.00;;;;;;5116703;28;20362;-80
2023/06/26 07:41:29;;;;;;;;;;;29.10;94.00;;;;;;5089955;28;20413;-82
2023/06/26 07:43:54;;;;;;;;;;;28.70;94.30;;;;;;5103537;28;20379;-82
2023/06/26 07:46:20;;;;;;;;;;;27.50;94.70;;;;;;5113589;28;20014;-83
2023/06/26 07:48:46;;;;;;;;;;;26.00;96.90;;;;;;5097991;28;19915;-82
2023/06/26 07:51:11;;;;;;;;;;;25.20;98.70;;;;;;5095431;28;20335;-83
2023/06/26 07:53:37;;;;;;;;;;;24.70;99.90;;;;;;5105479;28;19915;-83
2023/06/26 07:56:03;;;;;;;;;;;24.50;99.90;;;;;;5115401;28;19951;-83
2023/06/26 07:58:28;;;;;;;;;;;24.40;99.90;;;;;;5093689;28;20270;-83
2023/06/26 08:00:54;;;;;;;;;;;24.60;99.90;;;;;;5096801;28;19920;-83
2023/06/26 08:03:20;;;;;;;;;;;25.80;99.90;;;;;;5095647;28;19915;-83
2023/06/26 08:05:45;;;;;;;;;;;27.40;98.60;;;;;;5094736;27;19962;-83
2023/06/26 08:08:11;;;;;;;;;;;28.70;96.50;;;;;;5128923;27;19919;-83
2023/06/26 08:10:37;;;;;;;;;;;29.40;94.80;;;;;;5097012;28;20349;-81
2023/06/26 08:13:02;;;;;;;;;;;29.60;94.10;;;;;;5117759;27;19919;-81
2023/06/26 08:15:28;;;;;;;;;;;29.70;93.80;;;;;;5118403;27;20047;-81
2023/06/26 08:17:53;;;;;;;;;;;30.20;91.70;;;;;;5101506;27;19926;-82
2023/06/26 08:20:19;;;;;;;;;;;29.60;91.40;;;;;;5117483;27;20418;-81
2023/06/26 08:22:47;;;;;;;;;;;29.60;91.60;;;;;;5101294;27;19919;-81
2023/06/26 08:25:13;;;;;;;;;;;29.60;91.90;;;;;;5101805;27;19911;-81
2023/06/26 08:27:39;;;;;;;;;;;30.10;92.30;;;;;;5101641;27;19972;-82
2023/06/26 08:30:05;;;;;;;;;;;30.90;91.40;;;;;;5105658;27;20352;-81
2023/06/26 08:32:30;;;;;;;;;;;31.50;90.00;;;;;;5118751;27;19912;-81
2023/06/26 08:35:30;;;;;;;;;;;31.90;89.90;;;;;;5118563;27;19956;-82
2023/06/26 08:37:56;;;;;;;;;;;32.50;88.70;;;;;;5136019;27;19964;-82
2023/06/26 08:40:21;;;;;;;;;;;33.40;84.50;;;;;;5118868;27;19911;-81
2023/06/26 08:42:47;;;;;;;;;;;33.40;83.60;;;;;;5101730;27;20259;-82
2023/06/26 08:45:12;;;;;;;;;;;33.00;82.00;;;;;;5102432;27;20591;-82
2023/06/26 08:47:39;;;;;;;;;;;31.80;80.50;;;;;;5101552;27;20742;-82
2023/06/26 08:50:12;;;;;;;;;;;31.40;84.50;;;;;;5100894;27;20039;-82
2023/06/26 08:52:50;;;;;;;;;;;31.60;81.90;;;;;;5101706;27;20488;-82
2023/06/26 08:55:16;;;;;;;;;;;31.90;81.50;;;;;;5095446;27;19973;-82
2023/06/26 08:57:41;;;;;;;;;;;31.60;81.30;;;;;;5100910;27;19911;-82
2023/06/26 09:00:08;;;;;;;;;;;31.40;82.20;;;;;;5101030;27;19915;-82
2023/06/26 09:02:35;;;;;;;;;;;31.20;82.80;;;;;;5101428;27;19915;-82
2023/06/26 09:05:01;;;;;;;;;;;31.80;83.00;;;;;;5100545;27;19911;-82
2023/06/26 09:07:27;;;;;;;;;;;31.80;82.60;;;;;;5135926;27;19915;-83
2023/06/26 09:09:52;;;;;;;;;;;31.90;82.80;;;;;;5114005;27;20488;-82
2023/06/26 09:12:18;;;;;;;;;;;32.20;82.40;;;;;;5117672;27;19919;-83
2023/06/26 09:14:44;;;;;;;;;;;32.10;81.00;;;;;;5118267;27;19912;-82
2023/06/26 09:17:09;;;;;;;;;;;30.90;83.50;;;;;;5101560;27;19915;-82
2023/06/26 09:19:38;;;;;;;;;;;30.20;82.10;;;;;;5118387;27;19923;-82
2023/06/26 09:22:04;;;;;;;;;;;30.20;82.20;;;;;;5100462;27;19956;-83
2023/06/26 09:24:30;;;;;;;;;;;30.50;83.90;;;;;;5118130;27;19919;-81
2023/06/26 09:26:56;;;;;;;;;;;30.60;82.80;;;;;;5100892;27;19924;-81
2023/06/26 09:29:21;;;;;;;;;;;30.50;83.00;;;;;;5137056;27;19915;-82
2023/06/26 09:31:47;;;;;;;;;;;30.10;83.10;;;;;;5100458;27;19960;-82
2023/06/26 09:34:13;;;;;;;;;;;30.10;82.70;;;;;;5117325;27;19920;-83
2023/06/26 09:36:46;;;;;;;;;;;30.30;84.20;;;;;;5097439;27;19919;-82
2023/06/26 09:39:12;;;;;;;;;;;30.90;81.60;;;;;;5137074;27;19919;-83
2023/06/26 09:41:44;;;;;;;;;;;31.00;81.30;;;;;;5113139;27;19908;-83
2023/06/26 09:44:45;;;;;;;;;;;30.80;82.40;;;;;;5110257;27;19911;-82
2023/06/26 09:47:41;;;;;;;;;;;30.20;85.10;;;;;;5150835;27;19919;-82
2023/06/26 09:53:38;;;;;;;;;;;30.30;84.10;;;;;;5141409;27;19922;-82
2023/06/26 09:56:07;;;;;;;;;;;29.40;85.80;;;;;;5139644;27;19998;-82
2023/06/26 09:58:33;;;;;;;;;;;28.70;88.10;;;;;;5104899;27;20002;-82
2023/06/26 10:00:59;;;;;;;;;;;29.20;88.70;;;;;;5095331;27;19943;-82
2023/06/26 10:03:24;;;;;;;;;;;30.30;85.80;;;;;;5134136;27;19922;-83
2023/06/26 10:05:50;;;;;;;;;;;30.50;84.50;;;;;;5108117;27;19911;-83
2023/06/26 10:08:16;;;;;;;;;;;30.40;83.90;;;;;;5138529;27;19920;-83
2023/06/26 10:10:42;;;;;;;;;;;30.60;84.50;;;;;;5101790;27;19918;-83
2023/06/26 10:13:12;;;;;;;;;;;30.50;84.00;;;;;;5107696;27;19911;-82
2023/06/26 10:15:39;;;;;;;;;;;30.00;85.00;;;;;;5115607;27;19955;-83
2023/06/26 10:18:05;;;;;;;;;;;29.70;86.00;;;;;;5099572;27;19915;-84
2023/06/26 10:20:30;;;;;;;;;;;30.10;86.30;;;;;;5117165;27;19922;-82
2023/06/26 10:22:57;;;;;;;;;;;30.10;84.50;;;;;;5121392;27;20384;-84
2023/06/26 10:25:24;;;;;;;;;;;30.40;84.50;;;;;;5117122;27;19923;-84
2023/06/26 10:27:54;;;;;;;;;;;30.10;86.20;;;;;;5115862;27;19923;-84
2023/06/26 10:30:26;;;;;;;;;;;30.00;85.90;;;;;;5116222;27;19960;-84
2023/06/26 10:32:52;;;;;;;;;;;30.00;85.90;;;;;;5099645;27;19938;-84
2023/06/26 10:35:19;;;;;;;;;;;30.10;85.10;;;;;;5100167;27;19908;-84
2023/06/26 10:37:46;;;;;;;;;;;29.70;84.80;;;;;;5100034;27;20433;-83
2023/06/26 10:40:13;;;;;;;;;;;29.00;86.30;;;;;;5116835;27;19916;-84
2023/06/26 10:42:39;;;;;;;;;;;28.60;87.90;;;;;;5116137;27;19911;-83
2023/06/26 10:45:29;;;;;;;;;;;28.40;88.60;;;;;;5116598;27;19934;-83
2023/06/26 10:47:57;;;;;;;;;;;28.40;88.40;;;;;;5134204;27;19953;-84
2023/06/26 10:50:23;;;;;;;;;;;28.70;90.30;;;;;;5104433;27;19916;-83
2023/06/26 10:53:08;;;;;;;;;;;29.00;87.90;;;;;;5117418;27;20531;-83
2023/06/26 10:55:34;;;;;;;;;;;29.10;88.60;;;;;;5125801;27;19968;-83
2023/06/26 10:58:00;;;;;;;;;;;29.10;88.00;;;;;;5086147;27;20372;-83
2023/06/26 11:00:26;;;;;;;;;;;28.90;88.40;;;;;;5098804;27;19919;-83
2023/06/26 11:02:52;;;;;;;;;;;29.30;90.60;;;;;;5100543;28;20287;-82
2023/06/26 11:05:27;;;;;;;;;;;29.40;88.60;;;;;;5138315;27;19916;-83
2023/06/26 11:08:10;;;;;;;;;;;29.40;87.70;;;;;;5110527;27;20558;-83
2023/06/26 11:10:52;;;;;;;;;;;28.80;89.00;;;;;;5104417;27;19923;-82
2023/06/26 11:13:19;;;;;;;;;;;28.30;90.60;;;;;;5089372;27;19916;-81
2023/06/26 11:15:45;;;;;;;;;;;28.20;91.10;;;;;;5138615;27;19950;-83
2023/06/26 11:18:12;;;;;;;;;;;28.60;90.60;;;;;;5096044;28;20662;-83
2023/06/26 11:20:37;;;;;;;;;;;28.80;90.40;;;;;;5118333;27;20349;-83
2023/06/26 11:23:03;;;;;;;;;;;28.90;90.40;;;;;;5115126;27;19919;-84
2023/06/26 11:25:29;;;;;;;;;;;28.90;90.80;;;;;;5098551;27;19911;-83
2023/06/26 11:31:24;;;;;;;;;;;28.00;91.50;;;;;;5123867;27;20349;-83
2023/06/26 11:33:50;;;;;;;;;;;27.80;91.70;;;;;;5112985;28;19960;-82
2023/06/26 11:36:15;;;;;;;;;;;28.10;91.90;;;;;;5087308;28;19916;-82
2023/06/26 11:38:41;;;;;;;;;;;28.30;91.60;;;;;;5110586;28;20666;-82
2023/06/26 11:41:08;;;;;;;;;;;28.00;91.10;;;;;;5102050;28;19916;-83
2023/06/26 11:43:34;;;;;;;;;;;28.20;91.70;;;;;;5113099;28;20007;-82
2023/06/26 11:46:00;;;;;;;;;;;28.80;91.10;;;;;;5125793;28;20292;-82
2023/06/26 11:48:26;;;;;;;;;;;29.10;90.80;;;;;;5090523;28;19972;-83
2023/06/26 11:50:54;;;;;;;;;;;29.60;90.50;;;;;;5116544;28;20746;-83
2023/06/26 11:53:20;;;;;;;;;;;30.00;89.80;;;;;;5122105;28;19912;-83
2023/06/26 11:55:46;;;;;;;;;;;29.70;89.00;;;;;;5112885;28;19916;-83
2023/06/26 11:58:11;;;;;;;;;;;29.70;89.30;;;;;;5089733;28;19919;-84
2023/06/26 12:00:46;;;;;;;;;;;29.50;89.10;;;;;;5099264;27;19926;-83
2023/06/26 12:03:12;;;;;;;;;;;29.20;90.10;;;;;;5129738;27;19915;-83
2023/06/26 12:05:37;;;;;;;;;;;29.20;90.20;;;;;;5097123;28;20022;-83
2023/06/26 12:08:06;;;;;;;;;;;29.00;90.10;;;;;;5095015;28;20578;-82
2023/06/26 12:10:32;;;;;;;;;;;28.90;90.10;;;;;;5105167;28;20282;-83
2023/06/26 12:12:58;;;;;;;;;;;28.70;89.80;;;;;;5110169;28;20010;-83
2023/06/26 12:15:24;;;;;;;;;;;28.70;89.70;;;;;;5088544;27;19999;-83
2023/06/26 12:17:50;;;;;;;;;;;28.60;89.70;;;;;;5108934;27;20326;-82
2023/06/26 12:20:20;;;;;;;;;;;28.50;90.70;;;;;;5108123;28;19916;-82
2023/06/26 12:22:47;;;;;;;;;;;28.60;90.40;;;;;;5102781;28;20010;-84
2023/06/26 12:25:13;;;;;;;;;;;28.20;90.60;;;;;;5123544;28;19960;-82
2023/06/26 12:27:38;;;;;;;;;;;27.90;91.20;;;;;;5102736;28;20333;-83
2023/06/26 12:30:05;;;;;;;;;;;28.10;91.60;;;;;;5096299;28;19949;-82
2023/06/26 12:32:31;;;;;;;;;;;28.40;91.00;;;;;;5124619;27;19915;-83
2023/06/26 12:34:57;;;;;;;;;;;28.50;90.60;;;;;;5096565;28;20601;-84
2023/06/26 12:37:48;;;;;;;;;;;28.40;90.70;;;;;;5093611;28;19911;-83
2023/06/26 12:40:22;;;;;;;;;;;28.80;90.90;;;;;;5087008;28;20453;-83
2023/06/26 12:42:47;;;;;;;;;;;29.50;90.50;;;;;;5085384;28;20014;-83
2023/06/26 12:45:13;;;;;;;;;;;29.80;90.00;;;;;;5090892;28;20365;-83
2023/06/26 12:47:41;;;;;;;;;;;29.70;90.10;;;;;;5136223;27;20401;-84
2023/06/26 12:50:07;;;;;;;;;;;30.30;87.20;;;;;;5109990;28;19922;-82
2023/06/26 12:52:32;;;;;;;;;;;30.40;87.80;;;;;;5095045;27;19960;-84
2023/06/26 12:54:58;;;;;;;;;;;30.30;86.60;;;;;;5101792;27;19911;-83
2023/06/26 12:57:24;;;;;;;;;;;30.00;88.50;;;;;;5102247;28;19919;-82
2023/06/26 12:59:50;;;;;;;;;;;30.00;84.20;;;;;;5108215;27;19998;-82
2023/06/26 13:02:15;;;;;;;;;;;29.50;86.40;;;;;;5099668;27;20283;-82
2023/06/26 13:04:41;;;;;;;;;;;29.10;87.00;;;;;;5097278;27;19976;-82
2023/06/26 13:07:07;;;;;;;;;;;28.70;87.30;;;;;;5127033;27;19926;-83
2023/06/26 13:09:35;;;;;;;;;;;29.10;88.50;;;;;;5095673;27;19962;-82
2023/06/26 13:12:01;;;;;;;;;;;29.90;88.20;;;;;;5115296;27;20312;-83
2023/06/26 13:14:27;;;;;;;;;;;30.50;85.90;;;;;;5111677;27;20369;-84
2023/06/26 13:16:52;;;;;;;;;;;30.90;86.50;;;;;;5091852;27;19919;-83
2023/06/26 13:19:18;;;;;;;;;;;31.20;84.70;;;;;;5097913;27;20393;-83
2023/06/26 13:21:44;;;;;;;;;;;30.30;82.90;;;;;;5104160;27;20438;-83
2023/06/26 13:27:38;;;;;;;;;;;29.30;86.20;;;;;;5132290;27;19970;-84
2023/06/26 13:30:04;;;;;;;;;;;29.80;85.70;;;;;;5108956;27;19912;-84
2023/06/26 13:32:30;;;;;;;;;;;30.00;84.20;;;;;;5135108;27;20334;-84
2023/06/26 13:34:55;;;;;;;;;;;30.50;84.20;;;;;;5116686;27;19923;-84
2023/06/26 13:37:21;;;;;;;;;;;30.70;83.00;;;;;;5117515;27;19947;-83
2023/06/26 13:39:49;;;;;;;;;;;30.40;83.00;;;;;;5093456;27;20372;-83
2023/06/26 13:42:15;;;;;;;;;;;29.60;85.10;;;;;;5100538;27;20279;-83
2023/06/26 13:44:41;;;;;;;;;;;29.40;84.60;;;;;;5117751;27;19911;-83
2023/06/26 13:47:07;;;;;;;;;;;28.80;85.50;;;;;;5120989;27;19922;-83
2023/06/26 13:49:32;;;;;;;;;;;28.70;84.40;;;;;;5116285;27;19911;-84
2023/06/26 13:51:58;;;;;;;;;;;28.80;84.20;;;;;;5110731;27;19934;-84
2023/06/26 13:54:24;;;;;;;;;;;28.80;85.00;;;;;;5099669;27;19915;-80
2023/06/26 14:00:21;;;;;;;;;;;29.00;81.40;;;;;;5131230;27;19979;-82
2023/06/26 14:02:47;;;;;;;;;;;28.90;81.60;;;;;;5099029;27;20368;-80
2023/06/26 14:05:13;;;;;;;;;;;28.80;80.50;;;;;;5134779;27;19916;-80
2023/06/26 14:07:39;;;;;;;;;;;29.00;80.90;;;;;;5116139;27;19916;-80
2023/06/26 14:10:20;;;;;;;;;;;29.10;80.40;;;;;;5099131;27;19912;-81
2023/06/26 14:12:46;;;;;;;;;;;29.00;79.00;;;;;;5099052;27;19919;-80
2023/06/26 14:15:11;;;;;;;;;;;29.20;79.50;;;;;;5116601;27;19914;-80
2023/06/26 14:17:39;;;;;;;;;;;29.20;79.40;;;;;;5115722;27;19926;-81
2023/06/26 14:20:06;;;;;;;;;;;29.40;76.90;;;;;;5116173;27;19941;-81
2023/06/26 14:26:02;;;;;;;;;;;29.40;75.90;;;;;;5127021;27;20401;-81
2023/06/26 14:28:27;;;;;;;;;;;29.70;75.50;;;;;;5133844;27;19919;-81
2023/06/26 14:30:53;;;;;;;;;;;29.90;74.80;;;;;;5098563;27;19934;-82
2023/06/26 14:33:28;;;;;;;;;;;30.30;74.90;;;;;;5099130;27;19911;-81
2023/06/26 14:35:53;;;;;;;;;;;30.20;73.80;;;;;;5122558;27;19899;-80
2023/06/26 14:38:19;;;;;;;;;;;29.90;73.10;;;;;;5099852;27;20289;-81
2023/06/26 14:40:45;;;;;;;;;;;29.70;72.90;;;;;;5099268;27;19999;-81
2023/06/26 14:43:10;;;;;;;;;;;29.90;73.60;;;;;;5099149;27;20395;-81
2023/06/26 14:45:36;;;;;;;;;;;30.00;72.80;;;;;;5115829;27;19911;-81